Imperial Beach, California
Current Conditions -  °F | °C
As of 2:56 AM on Thursday 23 Oct 2014 (Local Time) from KNRS Reporting Station
Clear Clear  
Wind Chill: 61°   Ceiling: Unl
Heat Index: 61°   Visibility: 8mi
Dew Point: 57°   Wind: 5mph
Humidity: 87%   Direction: 30°NNE
Pressure: 29.94"   Gusts: NA
Location:  32.58°N, 117.11°W
Report Text: KNRS 230956Z AUTO 03004KT 8SM CLR 16/14 A2994 RMK AO2 SLP138 T01610139 $
Loading
Personal Weather Stations






























Interactive Weather Map
Tropical Storm Tracking
New forecast layout! Learn more

10-Day Weather Forecast

Advertisements
Track Severe Weather on mobile